Time;durP1;ratioP1;P1;durP2;ratioP2;P2;SDS_P1;SDS_P2;PMS_P1;PMS_P2;Temp;Humidity;BMP_temperature;BMP_pressure;BME280_temperature;BME280_humidity;BME280_pressure;Samples;Min_cycle;Max_cycle;Signal;HPM_P1;HPM_P2
2023/10/06 00:01:44;;;;;;;21.00;10.85;;;22.40;82.30;;;;;;6288709;22;20019;-77
2023/10/06 00:04:22;;;;;;;18.55;11.32;;;22.40;82.30;;;;;;6275893;22;20030;-77
2023/10/06 00:06:48;;;;;;;16.70;11.57;;;22.40;82.70;;;;;;6275964;22;20019;-76
2023/10/06 00:09:30;;;;;;;20.40;12.35;;;22.40;82.20;;;;;;6241428;22;20346;-76
2023/10/06 00:11:56;;;;;;;14.88;10.73;;;22.30;82.10;;;;;;6214406;23;20330;-78
2023/10/06 00:14:42;;;;;;;18.48;10.75;;;22.30;82.20;;;;;;6214667;23;20008;-76
2023/10/06 00:17:16;;;;;;;21.02;11.13;;;22.30;82.00;;;;;;6214883;23;20004;-76
2023/10/06 00:19:43;;;;;;;24.15;12.07;;;22.20;82.00;;;;;;6213920;23;20016;-76
2023/10/06 00:22:17;;;;;;;19.73;11.18;;;22.20;81.30;;;;;;6214741;23;20019;-77
2023/10/06 00:24:50;;;;;;;21.10;11.93;;;22.10;81.30;;;;;;6214714;23;20087;-77
2023/10/06 00:27:29;;;;;;;21.50;11.65;;;22.10;81.20;;;;;;6214455;23;20077;-77
2023/10/06 00:29:56;;;;;;;24.98;10.68;;;22.00;81.00;;;;;;6214431;23;20104;-77
2023/10/06 00:32:22;;;;;;;17.48;10.90;;;21.90;81.00;;;;;;6214689;23;20000;-76
2023/10/06 00:34:49;;;;;;;22.50;10.93;;;21.90;80.90;;;;;;6216200;23;20009;-77
2023/10/06 00:37:16;;;;;;;18.77;10.95;;;21.80;81.10;;;;;;6215251;23;20006;-77
2023/10/06 00:39:43;;;;;;;18.55;10.50;;;21.80;81.20;;;;;;6216308;23;20000;-76
2023/10/06 00:42:12;;;;;;;18.33;10.73;;;21.70;81.30;;;;;;6215379;23;20075;-76
2023/10/06 00:44:39;;;;;;;18.98;11.48;;;21.70;81.40;;;;;;6215312;23;20001;-76
2023/10/06 00:47:10;;;;;;;21.17;10.68;;;21.70;81.20;;;;;;6217675;23;20008;-76
2023/10/06 00:49:37;;;;;;;17.90;10.82;;;21.70;81.10;;;;;;6220851;23;20032;-77
2023/10/06 00:52:06;;;;;;;18.45;10.38;;;21.70;81.10;;;;;;6219788;23;20001;-78
2023/10/06 00:54:32;;;;;;;20.20;11.02;;;21.80;80.90;;;;;;6217511;23;20296;-76
2023/10/06 00:57:08;;;;;;;18.00;10.85;;;21.70;80.70;;;;;;6214671;23;20327;-77
2023/10/06 00:59:37;;;;;;;18.17;10.57;;;21.70;80.90;;;;;;6214181;23;20493;-78
2023/10/06 01:02:08;;;;;;;19.17;10.75;;;21.70;80.90;;;;;;6214186;23;20276;-78
2023/10/06 01:04:38;;;;;;;22.13;11.27;;;21.70;81.90;;;;;;6214520;23;20012;-76
2023/10/06 01:07:04;;;;;;;18.95;11.40;;;21.80;81.40;;;;;;6214184;23;20096;-76
2023/10/06 01:09:30;;;;;;;14.63;10.48;;;21.80;81.10;;;;;;6213909;23;20350;-76
2023/10/06 01:11:57;;;;;;;16.05;10.98;;;21.70;81.10;;;;;;6214354;23;20075;-78
2023/10/06 01:14:27;;;;;;;17.88;10.88;;;21.70;81.40;;;;;;6213935;23;20332;-76
2023/10/06 01:17:09;;;;;;;17.38;10.60;;;21.60;81.40;;;;;;6213919;23;20001;-76
2023/10/06 01:19:35;;;;;;;17.95;10.48;;;21.60;81.60;;;;;;6214520;23;20015;-75
2023/10/06 01:24:46;;;;;;;16.20;9.82;;;21.50;81.50;;;;;;6213930;23;20020;-76
2023/10/06 01:27:12;;;;;;;18.45;10.02;;;21.40;81.90;;;;;;6214150;23;20008;-77
2023/10/06 01:29:38;;;;;;;15.95;10.43;;;21.30;82.10;;;;;;6214452;23;20435;-76
2023/10/06 01:32:08;;;;;;;19.55;10.27;;;21.30;82.30;;;;;;6214384;23;20064;-77
2023/10/06 01:34:38;;;;;;;15.77;10.48;;;21.30;82.50;;;;;;6214286;23;20012;-76
2023/10/06 01:37:09;;;;;;;15.95;10.48;;;21.20;82.40;;;;;;6214886;23;20385;-76
2023/10/06 01:39:35;;;;;;;16.25;10.00;;;21.30;82.70;;;;;;6216103;23;20054;-75
2023/10/06 01:42:09;;;;;;;16.77;11.00;;;21.30;82.80;;;;;;6215953;23;20005;-77
2023/10/06 01:44:35;;;;;;;18.75;11.68;;;21.30;82.70;;;;;;6217129;23;20088;-76
2023/10/06 01:47:05;;;;;;;20.40;12.20;;;21.30;82.90;;;;;;6238349;22;20001;-76
2023/10/06 01:49:33;;;;;;;18.08;14.02;;;21.40;82.70;;;;;;6235054;22;20005;-76
2023/10/06 01:52:02;;;;;;;18.63;13.88;;;21.40;82.80;;;;;;6189551;23;20018;-77
2023/10/06 01:54:34;;;;;;;21.65;14.27;;;21.40;82.80;;;;;;6215885;23;20013;-76
2023/10/06 01:57:04;;;;;;;22.35;14.85;;;21.40;82.90;;;;;;6213909;23;20080;-76
2023/10/06 01:59:30;;;;;;;23.33;15.90;;;21.50;83.80;;;;;;6215889;23;20005;-77
2023/10/06 02:02:00;;;;;;;24.02;16.23;;;21.40;83.30;;;;;;6189843;23;20005;-76
2023/10/06 02:04:29;;;;;;;26.95;16.58;;;21.40;83.70;;;;;;6216310;23;20059;-76
2023/10/06 02:06:57;;;;;;;24.70;18.27;;;21.30;84.10;;;;;;6216067;23;20031;-77
2023/10/06 02:09:25;;;;;;;21.70;16.85;;;21.30;84.30;;;;;;6215831;23;20062;-77
2023/10/06 02:11:51;;;;;;;25.30;17.67;;;21.30;84.60;;;;;;6216055;23;20431;-77
2023/10/06 02:14:17;;;;;;;22.20;18.00;;;21.30;84.80;;;;;;6215656;23;20016;-77
2023/10/06 02:16:47;;;;;;;22.98;17.98;;;21.30;85.00;;;;;;6215817;23;20076;-78
2023/10/06 02:19:16;;;;;;;19.23;16.05;;;21.30;85.40;;;;;;6189439;23;20382;-77
2023/10/06 02:21:47;;;;;;;26.17;17.30;;;21.30;85.00;;;;;;6215860;23;20023;-78
2023/10/06 02:24:16;;;;;;;20.77;15.48;;;21.30;85.00;;;;;;6215309;23;20335;-77
2023/10/06 02:26:43;;;;;;;23.55;15.57;;;21.20;85.20;;;;;;6189063;23;20365;-76
2023/10/06 02:29:19;;;;;;;19.05;14.60;;;21.20;85.10;;;;;;6215540;23;20001;-76
2023/10/06 02:31:45;;;;;;;18.58;13.70;;;21.20;85.40;;;;;;6215312;23;20178;-76
2023/10/06 02:34:18;;;;;;;20.58;14.55;;;21.20;85.10;;;;;;6215530;23;20016;-77
2023/10/06 02:36:43;;;;;;;20.30;14.23;;;21.20;85.00;;;;;;6215845;23;20004;-76
2023/10/06 02:39:10;;;;;;;18.85;12.85;;;21.30;85.10;;;;;;6215838;23;20524;-77
2023/10/06 02:41:36;;;;;;;19.40;12.73;;;21.30;84.70;;;;;;6216057;23;20018;-77
2023/10/06 02:44:14;;;;;;;17.77;12.32;;;21.30;84.60;;;;;;6215655;23;20445;-77
2023/10/06 02:46:44;;;;;;;18.40;13.32;;;21.30;84.50;;;;;;6215911;23;20011;-77
2023/10/06 02:49:11;;;;;;;18.80;13.05;;;21.30;84.40;;;;;;6215833;23;20024;-77
2023/10/06 02:51:48;;;;;;;18.83;13.52;;;21.30;84.30;;;;;;6215285;23;19996;-76
2023/10/06 02:56:46;;;;;;;17.83;13.40;;;21.10;84.70;;;;;;6215531;23;20004;-77
2023/10/06 02:59:21;;;;;;;18.27;12.70;;;21.10;84.70;;;;;;6215107;23;20019;-77
2023/10/06 03:02:00;;;;;;;21.88;12.98;;;21.10;84.70;;;;;;6215034;23;20041;-77
2023/10/06 03:04:27;;;;;;;19.70;12.50;;;21.00;84.60;;;;;;6215017;23;20419;-77
2023/10/06 03:06:58;;;;;;;15.85;12.27;;;20.90;84.60;;;;;;6215509;23;20063;-78
2023/10/06 03:09:38;;;;;;;19.90;12.48;;;20.80;84.80;;;;;;6218610;23;20031;-76
2023/10/06 03:14:48;;;;;;;15.95;11.68;;;20.80;84.90;;;;;;6218956;23;20017;-76
2023/10/06 03:17:17;;;;;;;19.42;11.70;;;20.80;84.80;;;;;;6216065;23;20016;-77
2023/10/06 03:19:44;;;;;;;17.25;10.95;;;20.90;84.80;;;;;;6215588;23;20058;-78
2023/10/06 03:22:12;;;;;;;17.20;11.23;;;20.90;84.80;;;;;;6188713;23;20415;-76
2023/10/06 03:24:58;;;;;;;15.48;11.32;;;20.80;84.40;;;;;;6215479;23;20011;-76
2023/10/06 03:27:25;;;;;;;13.88;11.02;;;20.80;84.50;;;;;;6217334;23;20028;-76
2023/10/06 03:29:54;;;;;;;15.90;10.55;;;20.80;84.40;;;;;;6188704;23;20011;-76
2023/10/06 03:32:33;;;;;;;16.30;10.68;;;20.80;84.40;;;;;;6216045;23;20001;-76
2023/10/06 03:35:08;;;;;;;18.38;10.82;;;20.80;84.20;;;;;;6216145;23;20516;-77
2023/10/06 03:37:44;;;;;;;16.63;10.80;;;20.90;84.20;;;;;;6215668;23;20007;-76
2023/10/06 03:40:13;;;;;;;14.82;10.35;;;20.80;84.20;;;;;;6215707;23;20027;-78
2023/10/06 03:42:39;;;;;;;14.30;10.15;;;20.90;84.00;;;;;;6215542;23;20008;-76
2023/10/06 03:45:26;;;;;;;16.55;10.07;;;20.90;83.60;;;;;;6215247;23;20324;-78
2023/10/06 03:47:51;;;;;;;14.40;9.80;;;20.80;83.50;;;;;;6215277;23;20088;-77
2023/10/06 03:50:19;;;;;;;15.13;10.23;;;20.80;83.30;;;;;;6218920;23;20013;-76
2023/10/06 03:52:47;;;;;;;16.23;9.55;;;20.80;83.10;;;;;;6189414;23;20005;-76
2023/10/06 03:55:13;;;;;;;13.65;9.57;;;20.70;83.30;;;;;;6221626;23;20067;-77
2023/10/06 03:57:40;;;;;;;15.02;9.80;;;20.70;83.30;;;;;;6231283;23;20015;-76
2023/10/06 04:00:07;;;;;;;15.50;10.02;;;20.70;83.40;;;;;;6220034;23;20005;-77
2023/10/06 04:02:38;;;;;;;17.23;10.05;;;20.70;83.40;;;;;;6216904;23;20001;-77
2023/10/06 04:05:06;;;;;;;17.15;9.05;;;20.70;83.10;;;;;;6216143;23;20339;-78
2023/10/06 04:07:32;;;;;;;18.00;9.73;;;20.70;83.10;;;;;;6215101;23;20000;-78
2023/10/06 04:09:58;;;;;;;15.43;8.25;;;20.60;83.00;;;;;;6215063;23;20027;-76
2023/10/06 04:12:23;;;;;;;14.27;9.07;;;20.60;83.40;;;;;;6215075;23;20075;-77
2023/10/06 04:14:50;;;;;;;19.55;10.38;;;20.60;83.30;;;;;;6214732;23;20032;-76
2023/10/06 04:17:16;;;;;;;17.77;9.27;;;20.60;83.10;;;;;;6215878;23;20008;-76
2023/10/06 04:19:42;;;;;;;16.17;10.02;;;20.60;83.00;;;;;;6215896;23;20000;-76
2023/10/06 04:22:08;;;;;;;13.02;9.85;;;20.50;83.60;;;;;;6189098;23;20039;-76
2023/10/06 04:24:34;;;;;;;13.57;10.27;;;20.50;83.30;;;;;;6214865;23;20001;-77
2023/10/06 04:27:01;;;;;;;15.40;10.50;;;20.40;83.50;;;;;;6215257;23;20004;-77
2023/10/06 04:29:26;;;;;;;14.40;9.68;;;20.50;83.50;;;;;;6214929;23;20059;-77
2023/10/06 04:31:52;;;;;;;17.73;10.05;;;20.50;83.60;;;;;;6215044;23;20013;-77
2023/10/06 04:34:21;;;;;;;18.00;9.50;;;20.50;83.40;;;;;;6214709;23;20339;-77
2023/10/06 04:36:48;;;;;;;15.85;10.30;;;20.50;83.20;;;;;;6214483;23;20036;-77
2023/10/06 04:39:16;;;;;;;18.05;10.02;;;20.50;83.10;;;;;;6214807;23;20435;-76
2023/10/06 04:41:42;;;;;;;15.38;9.40;;;20.50;83.10;;;;;;6215396;23;20016;-78
2023/10/06 04:44:10;;;;;;;16.95;10.10;;;20.50;83.00;;;;;;6215176;23;20465;-76
2023/10/06 04:46:37;;;;;;;19.08;10.55;;;20.50;83.00;;;;;;6215188;23;19996;-78
2023/10/06 04:49:03;;;;;;;17.25;9.50;;;20.50;83.10;;;;;;6215379;23;20084;-78
2023/10/06 04:51:28;;;;;;;18.10;11.15;;;20.50;83.00;;;;;;6215117;23;20040;-77
2023/10/06 04:53:54;;;;;;;17.23;12.02;;;20.50;82.90;;;;;;6215148;23;20019;-77
2023/10/06 04:56:20;;;;;;;15.65;10.60;;;20.50;83.10;;;;;;6214839;23;19997;-80
2023/10/06 04:58:46;;;;;;;18.60;11.45;;;20.50;83.40;;;;;;6214991;23;20008;-77
2023/10/06 05:01:12;;;;;;;19.83;11.45;;;20.40;83.40;;;;;;6214763;23;19996;-77
2023/10/06 05:03:43;;;;;;;15.15;10.43;;;20.30;83.50;;;;;;6214432;23;20107;-77
2023/10/06 05:06:09;;;;;;;16.58;11.15;;;20.30;84.00;;;;;;6214829;23;20001;-79
2023/10/06 05:08:35;;;;;;;19.63;12.88;;;20.30;83.70;;;;;;6214384;23;20027;-77
2023/10/06 05:11:02;;;;;;;16.40;10.60;;;20.30;83.80;;;;;;6214318;23;20001;-79
2023/10/06 05:13:29;;;;;;;15.90;10.82;;;20.30;84.00;;;;;;6213886;23;20020;-77
2023/10/06 05:15:55;;;;;;;16.65;11.05;;;20.40;83.90;;;;;;6214414;23;20051;-79
2023/10/06 05:18:20;;;;;;;18.05;10.55;;;20.30;83.70;;;;;;6215052;23;20549;-77
2023/10/06 05:20:46;;;;;;;18.35;11.45;;;20.30;84.30;;;;;;6216175;23;20352;-79
2023/10/06 05:23:14;;;;;;;17.38;11.60;;;20.30;83.80;;;;;;6215896;23;20308;-78
2023/10/06 05:25:46;;;;;;;15.38;11.25;;;20.40;83.70;;;;;;6216583;23;20063;-77
2023/10/06 05:28:16;;;;;;;16.70;11.10;;;20.40;83.90;;;;;;6217314;23;20032;-77
2023/10/06 05:30:43;;;;;;;18.02;11.95;;;20.40;83.70;;;;;;6220504;23;20303;-76
2023/10/06 05:33:10;;;;;;;19.27;12.35;;;20.30;84.00;;;;;;6193484;23;20485;-76
2023/10/06 05:35:41;;;;;;;15.25;11.93;;;20.30;84.10;;;;;;6219785;23;20005;-78
2023/10/06 05:38:13;;;;;;;17.10;13.35;;;20.30;84.30;;;;;;6216304;23;20009;-78
2023/10/06 05:40:49;;;;;;;21.60;14.07;;;20.40;84.30;;;;;;6216104;23;20008;-79
2023/10/06 05:43:18;;;;;;;25.45;14.88;;;20.40;84.50;;;;;;6216423;23;20396;-78
2023/10/06 05:45:51;;;;;;;18.42;13.73;;;20.30;84.80;;;;;;6215961;23;20004;-77
2023/10/06 05:48:20;;;;;;;23.20;15.85;;;20.30;85.40;;;;;;6188770;23;20284;-80
2023/10/06 05:50:48;;;;;;;22.30;15.65;;;20.40;85.40;;;;;;6216039;23;20013;-78
2023/10/06 05:53:22;;;;;;;23.02;15.80;;;20.50;85.40;;;;;;6216589;23;20066;-80
2023/10/06 05:55:49;;;;;;;19.70;15.68;;;20.50;85.40;;;;;;6216348;23;20391;-78
2023/10/06 05:58:19;;;;;;;27.77;15.60;;;20.60;85.30;;;;;;6215671;23;20011;-79
2023/10/06 06:00:52;;;;;;;20.90;15.82;;;20.80;85.10;;;;;;6215721;23;20004;-78
2023/10/06 06:03:21;;;;;;;22.17;15.90;;;20.80;85.20;;;;;;6216657;23;20012;-76
2023/10/06 06:05:48;;;;;;;21.63;15.70;;;21.00;85.00;;;;;;6215892;23;20048;-76
2023/10/06 06:08:14;;;;;;;22.02;15.32;;;21.00;84.60;;;;;;6215393;23;20364;-79
2023/10/06 06:10:40;;;;;;;19.02;14.50;;;21.10;84.70;;;;;;6214496;23;20015;-81
2023/10/06 06:13:06;;;;;;;24.88;16.08;;;21.20;84.40;;;;;;6214508;23;20005;-81
2023/10/06 06:15:32;;;;;;;24.67;16.17;;;21.30;84.00;;;;;;6188042;23;20012;-80
2023/10/06 06:17:58;;;;;;;24.98;16.67;;;21.40;83.80;;;;;;6213878;23;20001;-80
2023/10/06 06:20:25;;;;;;;23.35;16.17;;;21.60;83.70;;;;;;6213890;23;20427;-80
2023/10/06 06:23:02;;;;;;;23.63;16.48;;;21.70;83.00;;;;;;6213479;23;20021;-79
2023/10/06 06:25:29;;;;;;;22.80;16.05;;;21.70;83.10;;;;;;6214014;23;20461;-81
2023/10/06 06:27:59;;;;;;;22.42;17.02;;;21.80;82.70;;;;;;6217057;23;20005;-80
2023/10/06 06:30:25;;;;;;;23.23;15.85;;;21.90;82.80;;;;;;6190562;23;20009;-80
2023/10/06 06:32:53;;;;;;;20.30;16.55;;;22.00;82.20;;;;;;6220675;23;20399;-80
2023/10/06 06:35:21;;;;;;;21.13;16.77;;;22.10;82.00;;;;;;6198912;23;20048;-80
2023/10/06 06:38:04;;;;;;;23.83;17.02;;;22.10;81.70;;;;;;6213891;23;20027;-81
2023/10/06 06:40:31;;;;;;;32.30;20.40;;;22.20;82.40;;;;;;6213155;23;20343;-80
2023/10/06 06:42:57;;;;;;;30.42;18.20;;;22.30;81.10;;;;;;6213341;23;20067;-82
2023/10/06 06:45:24;;;;;;;28.60;16.25;;;22.30;81.20;;;;;;6223405;23;20415;-81
2023/10/06 06:47:53;;;;;;;23.00;15.63;;;22.30;80.70;;;;;;6230498;23;20001;-84
2023/10/06 06:50:20;;;;;;;21.52;14.55;;;22.30;80.70;;;;;;6218928;23;20000;-79
2023/10/06 06:52:47;;;;;;;19.20;13.32;;;22.30;80.60;;;;;;6214656;23;20017;-82
2023/10/06 06:55:14;;;;;;;26.67;13.13;;;22.40;80.00;;;;;;6214074;23;20353;-81
2023/10/06 06:57:44;;;;;;;18.83;11.93;;;22.40;79.50;;;;;;6213861;23;19996;-82
2023/10/06 07:00:17;;;;;;;22.30;12.40;;;22.50;79.90;;;;;;6214655;23;20066;-82
2023/10/06 07:02:46;;;;;;;23.40;12.63;;;22.40;78.90;;;;;;6213805;23;20020;-80
2023/10/06 07:05:14;;;;;;;19.48;12.45;;;22.50;78.70;;;;;;6213248;23;20005;-81
2023/10/06 07:07:42;;;;;;;23.02;12.77;;;22.60;78.90;;;;;;6213604;23;20400;-78
2023/10/06 07:10:11;;;;;;;18.42;11.25;;;22.70;78.20;;;;;;6166202;23;1123014;-81
2023/10/06 07:12:37;;;;;;;20.15;10.82;;;22.70;77.80;;;;;;6214531;23;20075;-83
2023/10/06 07:15:04;;;;;;;21.52;11.23;;;22.80;77.40;;;;;;6214424;23;20059;-81
2023/10/06 07:17:30;;;;;;;15.10;10.13;;;22.90;77.40;;;;;;6214864;23;19997;-81
2023/10/06 07:20:00;;;;;;;14.55;9.30;;;22.90;76.80;;;;;;6215191;23;20007;-80
2023/10/06 07:22:31;;;;;;;24.88;9.35;;;23.00;76.00;;;;;;6214791;23;20308;-80
2023/10/06 07:24:57;;;;;;;16.73;8.23;;;23.00;75.50;;;;;;6214502;23;20000;-81
2023/10/06 07:27:24;;;;;;;17.67;9.05;;;23.10;75.30;;;;;;6214683;23;20039;-82
2023/10/06 07:29:52;;;;;;;17.10;8.75;;;23.20;74.80;;;;;;6214275;23;20015;-80
2023/10/06 07:32:18;;;;;;;12.90;8.00;;;23.30;74.00;;;;;;6214519;23;20028;-80
2023/10/06 07:34:44;;;;;;;22.27;11.00;;;23.40;74.50;;;;;;6214107;23;20019;-80
2023/10/06 07:37:11;;;;;;;23.08;11.63;;;23.50;73.60;;;;;;6214773;23;20004;-79
2023/10/06 07:39:37;;;;;;;14.50;9.27;;;23.40;73.50;;;;;;6214663;23;20012;-80
2023/10/06 07:42:06;;;;;;;15.30;8.95;;;23.40;73.40;;;;;;6214585;23;19996;-81
2023/10/06 07:44:33;;;;;;;15.13;9.52;;;23.40;72.90;;;;;;6188311;23;20145;-79
2023/10/06 07:47:00;;;;;;;14.45;8.65;;;23.30;73.10;;;;;;6216126;23;20044;-81
2023/10/06 07:49:27;;;;;;;15.52;8.95;;;23.20;73.30;;;;;;6214596;23;20092;-79
2023/10/06 07:51:55;;;;;;;14.80;9.45;;;23.10;73.60;;;;;;6213925;23;20001;-82
2023/10/06 07:54:23;;;;;;;15.27;9.23;;;23.10;73.90;;;;;;6214024;23;20308;-82
2023/10/06 07:56:49;;;;;;;16.60;9.50;;;23.00;74.00;;;;;;6216500;23;19996;-91
2023/10/06 07:59:14;;;;;;;24.95;9.93;;;23.00;74.10;;;;;;6202312;23;20157;-80
2023/10/06 08:01:40;;;;;;;15.35;10.90;;;23.00;74.10;;;;;;6214285;23;19997;-82
2023/10/06 08:04:07;;;;;;;17.73;10.23;;;23.00;74.50;;;;;;6214266;23;20008;-82
2023/10/06 08:06:34;;;;;;;17.65;10.05;;;23.00;75.00;;;;;;6215261;23;20012;-82
2023/10/06 08:09:00;;;;;;;15.95;10.95;;;23.00;75.20;;;;;;6215448;23;20111;-83
2023/10/06 08:11:25;;;;;;;17.80;11.55;;;22.90;75.10;;;;;;6214712;23;20028;-81
2023/10/06 08:13:52;;;;;;;19.05;11.95;;;22.90;75.70;;;;;;6216674;23;20092;-80
2023/10/06 08:16:18;;;;;;;17.00;10.38;;;22.90;75.90;;;;;;6215143;23;20538;-81
2023/10/06 08:18:45;;;;;;;20.55;13.13;;;22.80;76.00;;;;;;6215701;23;20001;-77
2023/10/06 08:21:11;;;;;;;18.52;12.05;;;22.90;76.20;;;;;;6213865;23;20135;-81
2023/10/06 08:23:37;;;;;;;18.17;11.98;;;22.90;76.50;;;;;;6212054;23;20032;-82
2023/10/06 08:26:08;;;;;;;24.73;12.48;;;22.90;76.70;;;;;;6214163;23;20000;-81
2023/10/06 08:28:34;;;;;;;17.63;13.10;;;22.90;76.60;;;;;;6214413;23;20060;-82
2023/10/06 08:31:02;;;;;;;20.55;12.88;;;22.90;76.80;;;;;;6214381;23;20465;-81
2023/10/06 08:33:29;;;;;;;20.10;13.07;;;23.00;77.60;;;;;;6214249;23;20087;-81
2023/10/06 08:35:56;;;;;;;14.18;10.70;;;23.00;77.20;;;;;;6214597;23;20004;-84
2023/10/06 08:38:24;;;;;;;16.08;9.98;;;23.00;76.80;;;;;;6215036;23;20004;-82
2023/10/06 08:40:56;;;;;;;14.15;11.00;;;23.10;77.00;;;;;;6214360;23;20005;-82
2023/10/06 08:43:26;;;;;;;15.57;11.20;;;23.20;77.40;;;;;;6214234;23;20407;-82
2023/10/06 08:45:55;;;;;;;18.65;11.38;;;23.20;76.90;;;;;;6213917;23;20092;-83
2023/10/06 08:48:27;;;;;;;15.13;10.48;;;23.20;77.00;;;;;;6214931;23;20004;-87
2023/10/06 08:50:57;;;;;;;22.35;12.60;;;23.30;77.10;;;;;;6218124;23;20007;-84
2023/10/06 08:53:26;;;;;;;19.95;10.20;;;23.20;77.10;;;;;;6219533;23;20020;-87
2023/10/06 08:55:52;;;;;;;19.55;11.48;;;23.20;77.10;;;;;;6217971;23;20022;-87
2023/10/06 08:58:18;;;;;;;20.10;11.27;;;23.30;77.20;;;;;;6216096;23;20009;-84
2023/10/06 09:00:44;;;;;;;26.40;12.07;;;23.30;77.00;;;;;;6215728;23;19997;-88
2023/10/06 09:03:11;;;;;;;18.48;10.43;;;23.30;77.00;;;;;;6223454;23;20419;-84
2023/10/06 09:05:40;;;;;;;14.25;10.30;;;23.40;77.20;;;;;;6230668;23;20004;-87
2023/10/06 09:08:08;;;;;;;18.58;10.02;;;23.40;76.70;;;;;;6194944;23;20367;-85
2023/10/06 09:10:48;;;;;;;16.27;9.98;;;23.40;76.60;;;;;;6219063;23;20078;-85
2023/10/06 09:13:17;;;;;;;15.68;9.65;;;23.40;77.00;;;;;;6215824;23;20020;-85
2023/10/06 09:15:59;;;;;;;16.45;9.25;;;23.50;76.20;;;;;;6232209;23;20060;-87
2023/10/06 09:18:29;;;;;;;19.60;10.25;;;23.60;76.00;;;;;;6222443;23;20004;-81
2023/10/06 09:21:09;;;;;;;12.48;9.45;;;23.60;75.90;;;;;;6217190;23;20012;-83
2023/10/06 09:23:40;;;;;;;16.80;10.05;;;23.70;75.80;;;;;;6214619;23;20000;-82
2023/10/06 09:26:11;;;;;;;16.55;9.82;;;23.80;75.60;;;;;;6216079;23;20393;-88
2023/10/06 09:28:56;;;;;;;18.60;9.55;;;23.80;75.30;;;;;;6219989;23;19996;-86
2023/10/06 09:31:38;;;;;;;19.27;10.48;;;23.90;75.30;;;;;;6221009;23;19992;-85
2023/10/06 09:34:07;;;;;;;15.82;8.98;;;24.00;75.10;;;;;;6225852;23;20082;-88
2023/10/06 09:36:33;;;;;;;21.73;10.07;;;24.00;75.30;;;;;;6218252;23;20012;-89
2023/10/06 09:39:00;;;;;;;22.90;10.45;;;24.10;74.90;;;;;;6217834;23;20431;-85
2023/10/06 09:41:28;;;;;;;21.23;10.43;;;24.20;75.00;;;;;;6217597;23;20059;-91
2023/10/06 09:43:58;;;;;;;18.13;8.93;;;24.20;74.80;;;;;;6217623;23;20015;-88
2023/10/06 09:46:25;;;;;;;17.90;9.80;;;24.30;74.20;;;;;;6217406;23;20431;-89
2023/10/06 09:48:52;;;;;;;13.73;9.13;;;24.40;73.70;;;;;;6216553;23;20003;-84
2023/10/06 09:51:20;;;;;;;12.93;8.27;;;24.40;73.60;;;;;;6190381;23;20098;-90
2023/10/06 09:53:47;;;;;;;19.63;9.15;;;24.50;73.40;;;;;;6220146;23;20020;-92
2023/10/06 09:56:16;;;;;;;13.18;8.88;;;24.50;72.70;;;;;;6214992;23;20339;-78
2023/10/06 09:58:48;;;;;;;14.57;8.20;;;24.60;72.80;;;;;;6214305;23;20001;-82
2023/10/06 10:01:21;;;;;;;14.38;8.48;;;24.70;72.30;;;;;;6187949;23;20450;-81
2023/10/06 10:03:48;;;;;;;18.05;9.88;;;24.70;72.40;;;;;;6220820;23;20008;-86
2023/10/06 10:06:16;;;;;;;13.32;8.95;;;24.80;72.20;;;;;;6223323;23;20008;-77
2023/10/06 10:08:42;;;;;;;15.43;8.80;;;24.80;71.80;;;;;;6218047;23;20023;-79
2023/10/06 10:11:14;;;;;;;17.65;8.55;;;24.90;71.60;;;;;;6224890;23;20004;-78
2023/10/06 10:13:46;;;;;;;14.55;8.20;;;25.00;72.00;;;;;;6222587;23;20426;-76
2023/10/06 10:16:42;;;;;;;17.67;8.73;;;25.10;71.40;;;;;;6217982;23;20039;-80
2023/10/06 10:19:11;;;;;;;30.25;24.20;;;25.10;70.40;;;;;;6215674;23;20000;-79
2023/10/06 10:21:41;;;;;;;26.80;13.45;;;25.20;71.10;;;;;;6215365;23;20051;-78
2023/10/06 10:24:09;;;;;;;14.82;9.45;;;25.30;70.90;;;;;;6215710;23;20574;-79
2023/10/06 10:26:39;;;;;;;16.63;8.93;;;25.40;71.20;;;;;;6215651;23;20007;-80
2023/10/06 10:29:17;;;;;;;14.20;9.15;;;25.40;70.60;;;;;;6194869;23;20047;-90
2023/10/06 10:31:56;;;;;;;13.70;8.48;;;25.40;69.40;;;;;;6221674;23;20000;-89
2023/10/06 10:34:23;;;;;;;14.65;9.07;;;25.50;69.90;;;;;;6230070;23;20074;-91
2023/10/06 10:37:12;;;;;;;17.73;9.55;;;25.50;70.10;;;;;;6235892;23;20001;-90
2023/10/06 10:39:48;;;;;;;17.23;8.63;;;25.60;70.20;;;;;;6229690;23;20370;-90
2023/10/06 10:42:21;;;;;;;14.10;9.10;;;25.60;69.70;;;;;;6235738;23;20020;-90
2023/10/06 10:44:50;;;;;;;19.02;9.75;;;25.70;68.60;;;;;;6229983;23;20056;-91
2023/10/06 10:47:16;;;;;;;15.95;9.23;;;25.70;69.70;;;;;;6222759;23;20118;-92
2023/10/06 10:49:44;;;;;;;12.43;8.48;;;25.80;69.20;;;;;;6221097;23;20024;-89
2023/10/06 10:52:11;;;;;;;15.82;8.48;;;25.90;69.00;;;;;;6193879;23;20019;-85
2023/10/06 10:54:40;;;;;;;19.63;8.90;;;26.00;68.80;;;;;;6221054;23;20015;-89
2023/10/06 10:57:06;;;;;;;17.48;8.82;;;26.10;68.60;;;;;;6221692;23;19997;-86
2023/10/06 11:03:01;;;;;;;14.32;7.38;;;26.20;67.10;;;;;;6216471;23;20008;-82
2023/10/06 11:05:27;;;;;;;16.95;9.18;;;26.20;66.90;;;;;;6216418;23;20004;-84
2023/10/06 11:08:01;;;;;;;15.52;8.68;;;26.30;67.80;;;;;;6216620;23;20311;-84
2023/10/06 11:10:27;;;;;;;13.48;9.18;;;26.40;67.00;;;;;;6215645;23;20020;-80
2023/10/06 11:13:21;;;;;;;12.85;8.88;;;26.50;67.20;;;;;;6215590;23;20367;-81
2023/10/06 11:15:50;;;;;;;15.63;8.52;;;26.60;66.50;;;;;;6217565;23;20034;-83
2023/10/06 11:18:18;;;;;;;12.38;8.10;;;26.60;66.50;;;;;;6217011;23;20011;-87
2023/10/06 11:20:45;;;;;;;25.98;10.30;;;26.60;66.10;;;;;;6191079;23;20035;-84
2023/10/06 11:23:11;;;;;;;18.20;9.20;;;26.70;66.00;;;;;;6189496;23;20489;-83
2023/10/06 11:25:48;;;;;;;14.85;8.45;;;26.70;65.60;;;;;;6216425;23;20465;-83
2023/10/06 11:28:14;;;;;;;13.77;8.18;;;26.80;65.80;;;;;;6216331;23;20015;-84
2023/10/06 11:30:41;;;;;;;16.05;8.70;;;26.80;65.40;;;;;;6215661;23;20075;-79
2023/10/06 11:33:09;;;;;;;13.32;8.70;;;26.90;65.70;;;;;;6215944;23;20084;-84
2023/10/06 11:35:38;;;;;;;14.35;7.90;;;27.00;66.90;;;;;;6216556;23;20067;-86
2023/10/06 11:38:11;;;;;;;19.92;8.50;;;27.00;66.70;;;;;;6220784;23;20442;-83
2023/10/06 11:40:37;;;;;;;14.45;8.02;;;27.10;65.40;;;;;;6226036;23;20046;-83
2023/10/06 11:43:14;;;;;;;14.05;8.60;;;27.10;65.30;;;;;;6219992;23;20434;-80
2023/10/06 11:45:41;;;;;;;13.77;9.07;;;27.10;64.90;;;;;;6217835;23;20054;-83
2023/10/06 11:48:28;;;;;;;16.30;7.32;;;27.20;64.70;;;;;;6215839;23;20047;-83
2023/10/06 11:51:12;;;;;;;16.60;8.45;;;27.30;64.50;;;;;;6216166;23;20000;-85
2023/10/06 11:53:40;;;;;;;16.63;8.63;;;27.30;64.50;;;;;;6212619;23;20020;-84
2023/10/06 11:56:10;;;;;;;11.55;8.68;;;27.40;64.20;;;;;;6215390;23;20056;-85
2023/10/06 11:58:37;;;;;;;12.95;8.25;;;27.50;63.70;;;;;;6214842;23;20012;-83
2023/10/06 12:01:03;;;;;;;14.70;8.30;;;27.50;63.30;;;;;;6215523;23;20004;-83
2023/10/06 12:03:42;;;;;;;17.65;8.02;;;27.40;63.10;;;;;;6215645;23;20424;-84
2023/10/06 12:06:11;;;;;;;12.80;7.80;;;27.40;62.70;;;;;;6214769;23;20005;-83
2023/10/06 12:08:44;;;;;;;16.00;8.15;;;27.50;62.50;;;;;;6216498;23;20016;-83
2023/10/06 12:11:12;;;;;;;16.60;8.85;;;27.50;62.20;;;;;;6215666;23;20011;-84
2023/10/06 12:13:39;;;;;;;18.30;8.25;;;27.50;62.10;;;;;;6215365;23;20087;-84
2023/10/06 12:16:15;;;;;;;16.20;8.52;;;27.60;61.70;;;;;;6215557;23;20012;-85
2023/10/06 12:18:43;;;;;;;13.95;7.85;;;27.60;62.30;;;;;;6217440;23;20000;-85
2023/10/06 12:21:11;;;;;;;14.13;7.78;;;27.70;62.20;;;;;;6216086;23;20090;-85
2023/10/06 12:23:37;;;;;;;15.10;7.45;;;27.80;62.10;;;;;;6215344;23;20000;-84
2023/10/06 12:26:05;;;;;;;13.35;7.45;;;27.80;61.40;;;;;;6218974;23;20015;-85
2023/10/06 12:28:31;;;;;;;15.38;8.00;;;27.80;62.60;;;;;;6229483;23;20087;-85
2023/10/06 12:30:57;;;;;;;15.85;8.18;;;27.90;63.60;;;;;;6229239;23;19997;-84
2023/10/06 12:33:23;;;;;;;13.40;7.38;;;27.90;61.60;;;;;;6221993;23;20004;-84
2023/10/06 12:35:52;;;;;;;11.52;8.05;;;28.00;60.90;;;;;;6215235;23;20450;-84
2023/10/06 12:38:19;;;;;;;15.30;7.47;;;28.00;60.60;;;;;;6215491;23;20088;-84
2023/10/06 12:40:48;;;;;;;11.52;7.97;;;28.10;60.20;;;;;;6215865;23;20059;-83
2023/10/06 12:43:15;;;;;;;16.80;8.23;;;28.10;59.90;;;;;;6216015;23;20000;-84
2023/10/06 12:45:40;;;;;;;14.25;8.02;;;28.10;60.00;;;;;;6215941;23;20420;-83
2023/10/06 12:48:07;;;;;;;14.35;8.05;;;28.10;59.50;;;;;;6216369;23;20080;-84
2023/10/06 12:50:43;;;;;;;11.05;7.32;;;28.20;60.20;;;;;;6214855;23;20005;-84
2023/10/06 12:53:10;;;;;;;12.05;7.18;;;28.20;61.20;;;;;;6215240;23;20001;-83